sensor_id;sensor_type;location;lat;lon;timestamp;P1;durP1;ratioP1;P2;durP2;ratioP2
55417;SDS011;41287;47.554;7.844;2023-09-19T00:01:05;13.60;;;5.28;;
55417;SDS011;41287;47.554;7.844;2023-09-19T00:03:33;11.48;;;5.95;;
55417;SDS011;41287;47.554;7.844;2023-09-19T00:06:02;10.10;;;5.82;;
55417;SDS011;41287;47.554;7.844;2023-09-19T00:08:29;9.65;;;5.60;;
55417;SDS011;41287;47.554;7.844;2023-09-19T00:10:55;11.00;;;6.00;;
55417;SDS011;41287;47.554;7.844;2023-09-19T00:13:21;10.60;;;5.63;;
55417;SDS011;41287;47.554;7.844;2023-09-19T00:15:47;8.70;;;5.65;;
55417;SDS011;41287;47.554;7.844;2023-09-19T00:18:15;9.43;;;5.90;;
55417;SDS011;41287;47.554;7.844;2023-09-19T00:20:42;8.90;;;5.38;;
55417;SDS011;41287;47.554;7.844;2023-09-19T00:23:12;8.15;;;5.20;;
55417;SDS011;41287;47.554;7.844;2023-09-19T00:25:38;9.10;;;5.45;;
55417;SDS011;41287;47.554;7.844;2023-09-19T00:28:05;8.98;;;5.10;;
55417;SDS011;41287;47.554;7.844;2023-09-19T00:30:32;9.55;;;5.43;;
55417;SDS011;41287;47.554;7.844;2023-09-19T00:32:58;9.80;;;5.32;;
55417;SDS011;41287;47.554;7.844;2023-09-19T00:35:27;11.07;;;5.65;;
55417;SDS011;41287;47.554;7.844;2023-09-19T00:37:52;9.32;;;5.22;;
55417;SDS011;41287;47.554;7.844;2023-09-19T00:40:18;7.40;;;4.38;;
55417;SDS011;41287;47.554;7.844;2023-09-19T00:42:44;8.75;;;5.35;;
55417;SDS011;41287;47.554;7.844;2023-09-19T00:45:11;7.57;;;4.57;;
55417;SDS011;41287;47.554;7.844;2023-09-19T00:47:38;7.32;;;4.43;;
55417;SDS011;41287;47.554;7.844;2023-09-19T00:50:05;8.05;;;5.00;;
55417;SDS011;41287;47.554;7.844;2023-09-19T00:52:39;9.30;;;4.88;;
55417;SDS011;41287;47.554;7.844;2023-09-19T00:55:06;8.05;;;4.20;;
55417;SDS011;41287;47.554;7.844;2023-09-19T00:57:34;7.15;;;4.63;;
55417;SDS011;41287;47.554;7.844;2023-09-19T01:00:00;8.23;;;4.45;;
55417;SDS011;41287;47.554;7.844;2023-09-19T01:02:31;6.95;;;4.13;;
55417;SDS011;41287;47.554;7.844;2023-09-19T01:04:57;7.68;;;4.60;;
55417;SDS011;41287;47.554;7.844;2023-09-19T01:07:25;9.43;;;4.47;;
55417;SDS011;41287;47.554;7.844;2023-09-19T01:09:55;6.82;;;4.25;;
55417;SDS011;41287;47.554;7.844;2023-09-19T01:12:31;8.25;;;4.55;;
55417;SDS011;41287;47.554;7.844;2023-09-19T01:21:18;6.85;;;4.10;;
55417;SDS011;41287;47.554;7.844;2023-09-19T01:32:01;7.45;;;4.10;;
55417;SDS011;41287;47.554;7.844;2023-09-19T01:34:48;6.95;;;4.10;;
55417;SDS011;41287;47.554;7.844;2023-09-19T01:37:15;6.93;;;4.03;;
55417;SDS011;41287;47.554;7.844;2023-09-19T01:39:55;9.18;;;4.22;;
55417;SDS011;41287;47.554;7.844;2023-09-19T01:45:37;6.18;;;3.50;;
55417;SDS011;41287;47.554;7.844;2023-09-19T01:50:44;6.25;;;3.65;;
55417;SDS011;41287;47.554;7.844;2023-09-19T01:54:03;6.72;;;3.63;;
55417;SDS011;41287;47.554;7.844;2023-09-19T01:56:12;6.20;;;3.83;;
55417;SDS011;41287;47.554;7.844;2023-09-19T01:58:48;5.45;;;3.38;;
55417;SDS011;41287;47.554;7.844;2023-09-19T02:01:18;5.15;;;3.20;;
55417;SDS011;41287;47.554;7.844;2023-09-19T02:03:46;6.30;;;3.67;;
55417;SDS011;41287;47.554;7.844;2023-09-19T02:06:16;6.65;;;3.63;;
55417;SDS011;41287;47.554;7.844;2023-09-19T02:08:43;6.03;;;3.40;;
55417;SDS011;41287;47.554;7.844;2023-09-19T02:11:09;7.45;;;3.42;;
55417;SDS011;41287;47.554;7.844;2023-09-19T02:13:35;5.25;;;3.20;;
55417;SDS011;41287;47.554;7.844;2023-09-19T02:16:01;5.32;;;3.28;;
55417;SDS011;41287;47.554;7.844;2023-09-19T02:18:29;5.30;;;3.20;;
55417;SDS011;41287;47.554;7.844;2023-09-19T02:20:55;6.45;;;3.42;;
55417;SDS011;41287;47.554;7.844;2023-09-19T02:23:21;7.18;;;3.53;;
55417;SDS011;41287;47.554;7.844;2023-09-19T02:25:53;4.65;;;3.08;;
55417;SDS011;41287;47.554;7.844;2023-09-19T02:28:19;5.78;;;3.10;;
55417;SDS011;41287;47.554;7.844;2023-09-19T02:30:47;5.65;;;3.08;;
55417;SDS011;41287;47.554;7.844;2023-09-19T02:33:13;5.60;;;2.78;;
55417;SDS011;41287;47.554;7.844;2023-09-19T02:35:39;4.45;;;2.78;;
55417;SDS011;41287;47.554;7.844;2023-09-19T02:38:04;4.65;;;2.78;;
55417;SDS011;41287;47.554;7.844;2023-09-19T02:40:37;4.33;;;2.73;;
55417;SDS011;41287;47.554;7.844;2023-09-19T02:43:02;4.32;;;2.60;;
55417;SDS011;41287;47.554;7.844;2023-09-19T02:45:28;4.32;;;2.83;;
55417;SDS011;41287;47.554;7.844;2023-09-19T02:47:55;5.07;;;2.72;;
55417;SDS011;41287;47.554;7.844;2023-09-19T02:50:20;4.35;;;2.83;;
55417;SDS011;41287;47.554;7.844;2023-09-19T02:52:46;4.97;;;3.00;;
55417;SDS011;41287;47.554;7.844;2023-09-19T02:55:13;4.22;;;2.60;;
55417;SDS011;41287;47.554;7.844;2023-09-19T02:57:45;5.57;;;2.83;;
55417;SDS011;41287;47.554;7.844;2023-09-19T03:00:14;4.75;;;2.42;;
55417;SDS011;41287;47.554;7.844;2023-09-19T03:02:41;3.40;;;2.42;;
55417;SDS011;41287;47.554;7.844;2023-09-19T03:05:06;2.97;;;2.22;;
55417;SDS011;41287;47.554;7.844;2023-09-19T03:07:32;4.18;;;2.20;;
55417;SDS011;41287;47.554;7.844;2023-09-19T03:09:58;3.75;;;2.33;;
55417;SDS011;41287;47.554;7.844;2023-09-19T03:12:24;4.28;;;2.53;;
55417;SDS011;41287;47.554;7.844;2023-09-19T03:14:50;3.60;;;2.45;;
55417;SDS011;41287;47.554;7.844;2023-09-19T03:17:15;3.75;;;2.28;;
55417;SDS011;41287;47.554;7.844;2023-09-19T03:19:41;5.53;;;2.17;;
55417;SDS011;41287;47.554;7.844;2023-09-19T03:22:12;5.18;;;2.00;;
55417;SDS011;41287;47.554;7.844;2023-09-19T03:24:38;4.43;;;2.45;;
55417;SDS011;41287;47.554;7.844;2023-09-19T03:27:03;3.25;;;2.10;;
55417;SDS011;41287;47.554;7.844;2023-09-19T03:29:29;3.40;;;2.20;;
55417;SDS011;41287;47.554;7.844;2023-09-19T03:31:54;3.45;;;2.05;;
55417;SDS011;41287;47.554;7.844;2023-09-19T03:34:20;3.80;;;2.20;;
55417;SDS011;41287;47.554;7.844;2023-09-19T03:36:45;3.10;;;1.80;;
55417;SDS011;41287;47.554;7.844;2023-09-19T03:39:11;4.53;;;2.33;;
55417;SDS011;41287;47.554;7.844;2023-09-19T03:41:40;3.20;;;1.83;;
55417;SDS011;41287;47.554;7.844;2023-09-19T03:44:06;3.83;;;2.10;;
55417;SDS011;41287;47.554;7.844;2023-09-19T03:46:32;4.32;;;2.10;;
55417;SDS011;41287;47.554;7.844;2023-09-19T03:48:58;3.05;;;1.80;;
55417;SDS011;41287;47.554;7.844;2023-09-19T03:51:23;3.17;;;1.95;;
55417;SDS011;41287;47.554;7.844;2023-09-19T03:53:48;3.70;;;1.92;;
55417;SDS011;41287;47.554;7.844;2023-09-19T03:56:16;3.22;;;1.95;;
55417;SDS011;41287;47.554;7.844;2023-09-19T03:58:42;3.58;;;1.70;;
55417;SDS011;41287;47.554;7.844;2023-09-19T04:01:07;2.40;;;1.60;;
55417;SDS011;41287;47.554;7.844;2023-09-19T04:03:34;2.85;;;1.77;;
55417;SDS011;41287;47.554;7.844;2023-09-19T04:06:10;2.47;;;1.60;;
55417;SDS011;41287;47.554;7.844;2023-09-19T04:08:41;2.55;;;1.73;;
55417;SDS011;41287;47.554;7.844;2023-09-19T04:11:07;2.63;;;1.70;;
55417;SDS011;41287;47.554;7.844;2023-09-19T04:13:32;5.93;;;1.80;;
55417;SDS011;41287;47.554;7.844;2023-09-19T04:15:57;5.45;;;1.80;;
55417;SDS011;41287;47.554;7.844;2023-09-19T04:18:23;3.25;;;1.27;;
55417;SDS011;41287;47.554;7.844;2023-09-19T04:20:52;3.92;;;1.30;;
55417;SDS011;41287;47.554;7.844;2023-09-19T04:23:18;2.97;;;1.42;;
55417;SDS011;41287;47.554;7.844;2023-09-19T04:25:45;2.63;;;1.40;;
55417;SDS011;41287;47.554;7.844;2023-09-19T04:28:11;2.97;;;1.05;;
55417;SDS011;41287;47.554;7.844;2023-09-19T04:30:39;3.50;;;1.40;;
55417;SDS011;41287;47.554;7.844;2023-09-19T04:33:07;3.35;;;1.33;;
55417;SDS011;41287;47.554;7.844;2023-09-19T04:35:33;4.53;;;1.60;;
55417;SDS011;41287;47.554;7.844;2023-09-19T04:38:00;4.05;;;1.30;;
55417;SDS011;41287;47.554;7.844;2023-09-19T04:40:28;6.55;;;1.38;;
55417;SDS011;41287;47.554;7.844;2023-09-19T04:42:54;4.10;;;1.33;;
55417;SDS011;41287;47.554;7.844;2023-09-19T04:45:24;6.93;;;1.10;;
55417;SDS011;41287;47.554;7.844;2023-09-19T04:47:50;4.68;;;1.20;;
55417;SDS011;41287;47.554;7.844;2023-09-19T04:50:15;3.42;;;1.20;;
55417;SDS011;41287;47.554;7.844;2023-09-19T04:52:42;3.28;;;1.08;;
55417;SDS011;41287;47.554;7.844;2023-09-19T04:55:09;2.78;;;1.10;;
55417;SDS011;41287;47.554;7.844;2023-09-19T04:57:44;4.32;;;1.38;;
55417;SDS011;41287;47.554;7.844;2023-09-19T05:00:11;1.58;;;1.08;;
55417;SDS011;41287;47.554;7.844;2023-09-19T05:02:39;3.03;;;1.20;;
55417;SDS011;41287;47.554;7.844;2023-09-19T05:05:08;4.03;;;1.10;;
55417;SDS011;41287;47.554;7.844;2023-09-19T05:07:42;3.72;;;1.02;;
55417;SDS011;41287;47.554;7.844;2023-09-19T05:10:09;1.92;;;1.10;;
55417;SDS011;41287;47.554;7.844;2023-09-19T05:12:38;3.33;;;1.23;;
55417;SDS011;41287;47.554;7.844;2023-09-19T05:15:04;2.60;;;1.00;;
55417;SDS011;41287;47.554;7.844;2023-09-19T05:17:32;2.50;;;0.90;;
55417;SDS011;41287;47.554;7.844;2023-09-19T05:19:58;3.38;;;1.15;;
55417;SDS011;41287;47.554;7.844;2023-09-19T05:22:23;3.08;;;1.23;;
55417;SDS011;41287;47.554;7.844;2023-09-19T05:24:52;3.63;;;1.45;;
55417;SDS011;41287;47.554;7.844;2023-09-19T05:27:17;4.10;;;1.10;;
55417;SDS011;41287;47.554;7.844;2023-09-19T05:29:43;2.03;;;1.10;;
55417;SDS011;41287;47.554;7.844;2023-09-19T05:32:09;2.72;;;1.33;;
55417;SDS011;41287;47.554;7.844;2023-09-19T05:34:38;2.85;;;1.17;;
55417;SDS011;41287;47.554;7.844;2023-09-19T05:37:04;1.75;;;1.00;;
55417;SDS011;41287;47.554;7.844;2023-09-19T05:39:33;2.80;;;1.23;;
55417;SDS011;41287;47.554;7.844;2023-09-19T05:41:59;3.05;;;1.00;;
55417;SDS011;41287;47.554;7.844;2023-09-19T05:44:26;3.83;;;0.90;;
55417;SDS011;41287;47.554;7.844;2023-09-19T05:46:51;3.13;;;0.87;;
55417;SDS011;41287;47.554;7.844;2023-09-19T05:49:18;2.63;;;0.80;;
55417;SDS011;41287;47.554;7.844;2023-09-19T05:51:46;3.22;;;1.10;;
55417;SDS011;41287;47.554;7.844;2023-09-19T05:54:12;3.97;;;0.90;;
55417;SDS011;41287;47.554;7.844;2023-09-19T05:56:37;3.05;;;0.80;;
55417;SDS011;41287;47.554;7.844;2023-09-19T05:59:03;5.07;;;1.20;;
55417;SDS011;41287;47.554;7.844;2023-09-19T06:01:30;1.98;;;1.00;;
55417;SDS011;41287;47.554;7.844;2023-09-19T06:03:57;4.05;;;1.10;;
55417;SDS011;41287;47.554;7.844;2023-09-19T06:06:24;5.47;;;1.38;;
55417;SDS011;41287;47.554;7.844;2023-09-19T06:08:50;4.43;;;1.10;;
55417;SDS011;41287;47.554;7.844;2023-09-19T06:11:15;3.15;;;1.10;;
55417;SDS011;41287;47.554;7.844;2023-09-19T06:13:41;2.33;;;0.95;;
55417;SDS011;41287;47.554;7.844;2023-09-19T06:16:06;1.77;;;0.90;;
55417;SDS011;41287;47.554;7.844;2023-09-19T06:18:34;2.53;;;1.10;;
55417;SDS011;41287;47.554;7.844;2023-09-19T06:20:59;5.30;;;1.20;;
55417;SDS011;41287;47.554;7.844;2023-09-19T06:23:25;2.35;;;1.30;;
55417;SDS011;41287;47.554;7.844;2023-09-19T06:25:52;5.22;;;1.15;;
55417;SDS011;41287;47.554;7.844;2023-09-19T06:28:18;2.55;;;1.00;;
55417;SDS011;41287;47.554;7.844;2023-09-19T06:30:50;2.33;;;1.17;;
55417;SDS011;41287;47.554;7.844;2023-09-19T06:33:16;2.65;;;1.02;;
55417;SDS011;41287;47.554;7.844;2023-09-19T06:35:43;4.35;;;1.10;;
55417;SDS011;41287;47.554;7.844;2023-09-19T06:38:09;2.30;;;0.80;;
55417;SDS011;41287;47.554;7.844;2023-09-19T06:40:38;5.95;;;1.00;;
55417;SDS011;41287;47.554;7.844;2023-09-19T06:43:03;2.10;;;0.77;;
55417;SDS011;41287;47.554;7.844;2023-09-19T06:45:30;1.35;;;0.80;;
55417;SDS011;41287;47.554;7.844;2023-09-19T06:47:56;2.75;;;0.88;;
55417;SDS011;41287;47.554;7.844;2023-09-19T06:50:23;2.55;;;1.08;;
55417;SDS011;41287;47.554;7.844;2023-09-19T06:52:51;1.70;;;0.73;;
55417;SDS011;41287;47.554;7.844;2023-09-19T06:55:18;3.70;;;1.10;;
55417;SDS011;41287;47.554;7.844;2023-09-19T06:57:45;3.88;;;1.02;;
55417;SDS011;41287;47.554;7.844;2023-09-19T07:00:13;2.05;;;0.85;;
55417;SDS011;41287;47.554;7.844;2023-09-19T07:05:33;3.15;;;0.80;;
55417;SDS011;41287;47.554;7.844;2023-09-19T07:08:02;2.47;;;1.00;;
55417;SDS011;41287;47.554;7.844;2023-09-19T07:10:28;3.80;;;0.90;;
55417;SDS011;41287;47.554;7.844;2023-09-19T07:12:55;3.35;;;0.95;;
55417;SDS011;41287;47.554;7.844;2023-09-19T07:15:27;2.30;;;1.00;;
55417;SDS011;41287;47.554;7.844;2023-09-19T07:17:54;5.65;;;1.00;;
55417;SDS011;41287;47.554;7.844;2023-09-19T07:20:21;2.20;;;0.82;;
55417;SDS011;41287;47.554;7.844;2023-09-19T07:22:48;3.10;;;0.90;;
55417;SDS011;41287;47.554;7.844;2023-09-19T07:25:20;3.78;;;1.23;;
55417;SDS011;41287;47.554;7.844;2023-09-19T07:27:45;3.50;;;1.23;;
55417;SDS011;41287;47.554;7.844;2023-09-19T07:30:11;4.35;;;1.13;;
55417;SDS011;41287;47.554;7.844;2023-09-19T07:32:37;3.55;;;1.20;;
55417;SDS011;41287;47.554;7.844;2023-09-19T07:35:03;1.88;;;1.10;;
55417;SDS011;41287;47.554;7.844;2023-09-19T07:37:30;3.40;;;1.05;;
55417;SDS011;41287;47.554;7.844;2023-09-19T07:39:58;3.20;;;1.10;;
55417;SDS011;41287;47.554;7.844;2023-09-19T07:42:34;2.63;;;1.00;;
55417;SDS011;41287;47.554;7.844;2023-09-19T07:45:04;3.63;;;0.90;;
55417;SDS011;41287;47.554;7.844;2023-09-19T07:47:29;1.90;;;1.10;;
55417;SDS011;41287;47.554;7.844;2023-09-19T07:49:57;2.25;;;0.73;;
55417;SDS011;41287;47.554;7.844;2023-09-19T07:52:22;2.25;;;1.00;;
55417;SDS011;41287;47.554;7.844;2023-09-19T07:54:48;3.07;;;0.93;;
55417;SDS011;41287;47.554;7.844;2023-09-19T07:57:14;1.70;;;0.70;;
55417;SDS011;41287;47.554;7.844;2023-09-19T07:59:40;2.60;;;1.10;;
55417;SDS011;41287;47.554;7.844;2023-09-19T08:02:07;1.88;;;1.00;;
55417;SDS011;41287;47.554;7.844;2023-09-19T08:04:34;2.45;;;1.20;;
55417;SDS011;41287;47.554;7.844;2023-09-19T08:07:00;3.47;;;1.00;;
55417;SDS011;41287;47.554;7.844;2023-09-19T08:09:25;1.58;;;0.90;;
55417;SDS011;41287;47.554;7.844;2023-09-19T08:11:51;2.10;;;0.80;;
55417;SDS011;41287;47.554;7.844;2023-09-19T08:14:19;3.13;;;1.08;;
55417;SDS011;41287;47.554;7.844;2023-09-19T08:16:44;3.97;;;1.33;;
55417;SDS011;41287;47.554;7.844;2023-09-19T08:19:10;3.05;;;0.98;;
55417;SDS011;41287;47.554;7.844;2023-09-19T08:21:35;4.22;;;1.20;;
55417;SDS011;41287;47.554;7.844;2023-09-19T08:24:01;2.78;;;0.80;;
55417;SDS011;41287;47.554;7.844;2023-09-19T08:26:30;2.17;;;0.95;;
55417;SDS011;41287;47.554;7.844;2023-09-19T08:28:56;3.67;;;1.17;;
55417;SDS011;41287;47.554;7.844;2023-09-19T08:31:22;2.20;;;1.08;;
55417;SDS011;41287;47.554;7.844;2023-09-19T08:33:48;2.95;;;1.20;;
55417;SDS011;41287;47.554;7.844;2023-09-19T08:36:14;2.22;;;0.80;;
55417;SDS011;41287;47.554;7.844;2023-09-19T08:38:40;3.25;;;0.93;;
55417;SDS011;41287;47.554;7.844;2023-09-19T08:41:06;1.63;;;0.93;;
55417;SDS011;41287;47.554;7.844;2023-09-19T08:43:32;2.10;;;1.10;;
55417;SDS011;41287;47.554;7.844;2023-09-19T08:48:30;3.55;;;1.27;;
55417;SDS011;41287;47.554;7.844;2023-09-19T08:53:58;3.35;;;1.23;;
55417;SDS011;41287;47.554;7.844;2023-09-19T08:56:31;2.78;;;1.10;;
55417;SDS011;41287;47.554;7.844;2023-09-19T08:58:59;2.97;;;1.35;;
55417;SDS011;41287;47.554;7.844;2023-09-19T09:01:33;3.05;;;1.10;;
55417;SDS011;41287;47.554;7.844;2023-09-19T09:04:01;2.72;;;1.05;;
55417;SDS011;41287;47.554;7.844;2023-09-19T09:06:27;2.58;;;1.10;;
55417;SDS011;41287;47.554;7.844;2023-09-19T09:08:54;2.88;;;1.40;;
55417;SDS011;41287;47.554;7.844;2023-09-19T09:11:19;3.58;;;1.40;;
55417;SDS011;41287;47.554;7.844;2023-09-19T09:13:49;2.60;;;1.30;;
55417;SDS011;41287;47.554;7.844;2023-09-19T09:16:18;3.25;;;1.30;;
55417;SDS011;41287;47.554;7.844;2023-09-19T09:18:43;1.50;;;0.80;;
55417;SDS011;41287;47.554;7.844;2023-09-19T09:21:10;4.53;;;1.00;;
55417;SDS011;41287;47.554;7.844;2023-09-19T09:23:35;5.75;;;1.48;;
55417;SDS011;41287;47.554;7.844;2023-09-19T09:26:01;2.80;;;1.02;;
55417;SDS011;41287;47.554;7.844;2023-09-19T09:28:31;3.95;;;1.35;;
55417;SDS011;41287;47.554;7.844;2023-09-19T09:30:58;2.88;;;1.00;;
55417;SDS011;41287;47.554;7.844;2023-09-19T09:33:24;3.10;;;1.00;;
55417;SDS011;41287;47.554;7.844;2023-09-19T09:38:17;4.07;;;1.00;;
55417;SDS011;41287;47.554;7.844;2023-09-19T09:40:48;2.38;;;0.90;;
55417;SDS011;41287;47.554;7.844;2023-09-19T09:43:37;2.55;;;1.00;;
55417;SDS011;41287;47.554;7.844;2023-09-19T09:48:57;3.70;;;1.30;;
55417;SDS011;41287;47.554;7.844;2023-09-19T09:51:43;1.92;;;0.90;;
55417;SDS011;41287;47.554;7.844;2023-09-19T09:54:28;2.78;;;1.20;;
55417;SDS011;41287;47.554;7.844;2023-09-19T09:57:10;5.70;;;1.20;;
55417;SDS011;41287;47.554;7.844;2023-09-19T09:59:49;2.55;;;1.15;;
55417;SDS011;41287;47.554;7.844;2023-09-19T10:02:27;4.28;;;1.40;;
55417;SDS011;41287;47.554;7.844;2023-09-19T10:04:57;2.50;;;0.90;;
55417;SDS011;41287;47.554;7.844;2023-09-19T10:07:39;3.75;;;1.30;;
55417;SDS011;41287;47.554;7.844;2023-09-19T10:10:07;4.13;;;1.27;;
55417;SDS011;41287;47.554;7.844;2023-09-19T10:12:44;3.97;;;1.20;;
55417;SDS011;41287;47.554;7.844;2023-09-19T10:15:11;3.47;;;1.40;;
55417;SDS011;41287;47.554;7.844;2023-09-19T10:17:45;2.28;;;1.10;;
55417;SDS011;41287;47.554;7.844;2023-09-19T10:20:15;1.83;;;0.93;;
55417;SDS011;41287;47.554;7.844;2023-09-19T10:23:09;3.28;;;1.17;;
55417;SDS011;41287;47.554;7.844;2023-09-19T10:25:38;2.88;;;1.33;;
55417;SDS011;41287;47.554;7.844;2023-09-19T10:28:06;1.45;;;0.98;;
55417;SDS011;41287;47.554;7.844;2023-09-19T10:30:36;2.55;;;1.20;;
55417;SDS011;41287;47.554;7.844;2023-09-19T10:35:34;2.13;;;1.00;;
55417;SDS011;41287;47.554;7.844;2023-09-19T10:38:05;2.38;;;1.10;;
55417;SDS011;41287;47.554;7.844;2023-09-19T10:40:32;3.85;;;1.25;;
55417;SDS011;41287;47.554;7.844;2023-09-19T10:43:00;4.20;;;1.40;;
55417;SDS011;41287;47.554;7.844;2023-09-19T10:45:34;2.00;;;1.13;;
55417;SDS011;41287;47.554;7.844;2023-09-19T10:48:01;1.95;;;1.00;;
55417;SDS011;41287;47.554;7.844;2023-09-19T10:50:33;6.78;;;1.48;;
55417;SDS011;41287;47.554;7.844;2023-09-19T10:53:29;2.05;;;1.10;;
55417;SDS011;41287;47.554;7.844;2023-09-19T10:56:05;2.58;;;1.10;;
55417;SDS011;41287;47.554;7.844;2023-09-19T10:58:35;3.75;;;1.10;;
55417;SDS011;41287;47.554;7.844;2023-09-19T11:01:04;2.47;;;0.80;;
55417;SDS011;41287;47.554;7.844;2023-09-19T11:03:40;1.90;;;1.20;;
55417;SDS011;41287;47.554;7.844;2023-09-19T11:06:09;3.00;;;1.10;;
55417;SDS011;41287;47.554;7.844;2023-09-19T11:08:54;4.80;;;1.40;;
55417;SDS011;41287;47.554;7.844;2023-09-19T11:11:41;3.50;;;1.20;;
55417;SDS011;41287;47.554;7.844;2023-09-19T11:30:43;2.30;;;1.00;;
55417;SDS011;41287;47.554;7.844;2023-09-19T11:33:16;5.30;;;1.00;;
55417;SDS011;41287;47.554;7.844;2023-09-19T11:46:28;3.15;;;1.00;;
55417;SDS011;41287;47.554;7.844;2023-09-19T11:48:56;1.92;;;0.75;;
55417;SDS011;41287;47.554;7.844;2023-09-19T11:51:39;2.08;;;1.10;;
55417;SDS011;41287;47.554;7.844;2023-09-19T11:54:10;2.95;;;1.23;;
55417;SDS011;41287;47.554;7.844;2023-09-19T11:56:42;2.67;;;1.00;;
55417;SDS011;41287;47.554;7.844;2023-09-19T11:59:14;1.70;;;0.77;;
55417;SDS011;41287;47.554;7.844;2023-09-19T12:01:50;2.50;;;0.93;;
55417;SDS011;41287;47.554;7.844;2023-09-19T12:04:22;3.20;;;1.00;;
55417;SDS011;41287;47.554;7.844;2023-09-19T12:07:00;2.08;;;1.00;;
55417;SDS011;41287;47.554;7.844;2023-09-19T12:09:26;1.50;;;0.77;;
55417;SDS011;41287;47.554;7.844;2023-09-19T12:11:52;2.13;;;0.88;;
55417;SDS011;41287;47.554;7.844;2023-09-19T12:14:21;1.10;;;0.90;;
55417;SDS011;41287;47.554;7.844;2023-09-19T12:16:57;1.73;;;1.10;;
55417;SDS011;41287;47.554;7.844;2023-09-19T12:19:23;5.93;;;1.10;;
55417;SDS011;41287;47.554;7.844;2023-09-19T12:24:29;1.58;;;0.77;;
55417;SDS011;41287;47.554;7.844;2023-09-19T12:26:59;2.05;;;1.10;;
55417;SDS011;41287;47.554;7.844;2023-09-19T12:29:26;2.20;;;1.10;;
55417;SDS011;41287;47.554;7.844;2023-09-19T12:31:56;1.63;;;0.90;;
55417;SDS011;41287;47.554;7.844;2023-09-19T12:34:29;2.55;;;0.93;;
55417;SDS011;41287;47.554;7.844;2023-09-19T12:37:05;2.70;;;1.05;;
55417;SDS011;41287;47.554;7.844;2023-09-19T12:39:40;3.33;;;0.90;;
55417;SDS011;41287;47.554;7.844;2023-09-19T12:42:10;2.03;;;0.85;;
55417;SDS011;41287;47.554;7.844;2023-09-19T12:44:40;3.53;;;0.93;;
55417;SDS011;41287;47.554;7.844;2023-09-19T12:47:08;1.90;;;1.05;;
55417;SDS011;41287;47.554;7.844;2023-09-19T12:49:35;1.70;;;0.80;;
55417;SDS011;41287;47.554;7.844;2023-09-19T12:52:00;1.10;;;0.90;;
55417;SDS011;41287;47.554;7.844;2023-09-19T12:54:38;1.73;;;0.90;;
55417;SDS011;41287;47.554;7.844;2023-09-19T12:57:08;1.75;;;0.90;;
55417;SDS011;41287;47.554;7.844;2023-09-19T12:59:48;2.58;;;1.00;;
55417;SDS011;41287;47.554;7.844;2023-09-19T13:02:17;1.50;;;0.95;;
55417;SDS011;41287;47.554;7.844;2023-09-19T13:04:52;1.33;;;0.82;;
55417;SDS011;41287;47.554;7.844;2023-09-19T13:10:15;1.35;;;0.85;;
55417;SDS011;41287;47.554;7.844;2023-09-19T13:12:42;1.10;;;0.88;;
55417;SDS011;41287;47.554;7.844;2023-09-19T13:15:12;3.92;;;1.05;;
55417;SDS011;41287;47.554;7.844;2023-09-19T13:17:48;1.33;;;0.98;;
55417;SDS011;41287;47.554;7.844;2023-09-19T13:20:27;1.92;;;0.80;;
55417;SDS011;41287;47.554;7.844;2023-09-19T13:22:53;1.98;;;0.77;;
55417;SDS011;41287;47.554;7.844;2023-09-19T13:25:20;1.52;;;0.90;;
55417;SDS011;41287;47.554;7.844;2023-09-19T13:27:48;1.67;;;0.77;;
55417;SDS011;41287;47.554;7.844;2023-09-19T13:30:17;2.40;;;0.90;;
55417;SDS011;41287;47.554;7.844;2023-09-19T13:32:43;2.22;;;0.93;;
55417;SDS011;41287;47.554;7.844;2023-09-19T13:35:09;1.98;;;1.02;;
55417;SDS011;41287;47.554;7.844;2023-09-19T13:37:35;1.33;;;0.90;;
55417;SDS011;41287;47.554;7.844;2023-09-19T13:40:07;2.53;;;0.88;;
55417;SDS011;41287;47.554;7.844;2023-09-19T13:42:36;2.17;;;0.98;;
55417;SDS011;41287;47.554;7.844;2023-09-19T13:45:05;1.70;;;0.90;;
55417;SDS011;41287;47.554;7.844;2023-09-19T13:47:35;2.75;;;0.73;;
55417;SDS011;41287;47.554;7.844;2023-09-19T13:50:03;2.40;;;0.90;;
55417;SDS011;41287;47.554;7.844;2023-09-19T13:52:30;1.75;;;0.88;;
55417;SDS011;41287;47.554;7.844;2023-09-19T13:54:56;2.20;;;1.17;;
55417;SDS011;41287;47.554;7.844;2023-09-19T13:57:24;1.42;;;0.90;;
55417;SDS011;41287;47.554;7.844;2023-09-19T13:59:51;1.48;;;0.88;;
55417;SDS011;41287;47.554;7.844;2023-09-19T14:02:17;2.50;;;1.00;;
55417;SDS011;41287;47.554;7.844;2023-09-19T14:04:47;1.50;;;0.93;;
55417;SDS011;41287;47.554;7.844;2023-09-19T14:07:13;2.15;;;1.10;;
55417;SDS011;41287;47.554;7.844;2023-09-19T14:09:40;2.22;;;0.80;;
55417;SDS011;41287;47.554;7.844;2023-09-19T14:12:06;1.63;;;0.98;;
55417;SDS011;41287;47.554;7.844;2023-09-19T14:14:32;2.45;;;1.20;;
55417;SDS011;41287;47.554;7.844;2023-09-19T14:16:57;1.80;;;1.00;;
55417;SDS011;41287;47.554;7.844;2023-09-19T14:19:25;1.80;;;0.80;;
55417;SDS011;41287;47.554;7.844;2023-09-19T14:21:51;1.65;;;1.00;;
55417;SDS011;41287;47.554;7.844;2023-09-19T14:24:18;2.00;;;0.80;;
55417;SDS011;41287;47.554;7.844;2023-09-19T14:26:44;1.65;;;0.90;;
55417;SDS011;41287;47.554;7.844;2023-09-19T14:29:10;1.90;;;0.93;;
55417;SDS011;41287;47.554;7.844;2023-09-19T14:31:37;1.58;;;1.00;;
55417;SDS011;41287;47.554;7.844;2023-09-19T14:34:03;1.40;;;0.90;;
55417;SDS011;41287;47.554;7.844;2023-09-19T14:36:30;1.70;;;0.95;;
55417;SDS011;41287;47.554;7.844;2023-09-19T14:38:55;1.83;;;1.00;;
55417;SDS011;41287;47.554;7.844;2023-09-19T14:41:23;1.63;;;0.90;;
55417;SDS011;41287;47.554;7.844;2023-09-19T14:43:50;1.63;;;0.90;;
55417;SDS011;41287;47.554;7.844;2023-09-19T14:46:20;1.45;;;0.90;;
55417;SDS011;41287;47.554;7.844;2023-09-19T14:48:46;2.53;;;0.90;;
55417;SDS011;41287;47.554;7.844;2023-09-19T14:51:13;1.52;;;1.05;;
55417;SDS011;41287;47.554;7.844;2023-09-19T14:53:42;3.13;;;1.10;;
55417;SDS011;41287;47.554;7.844;2023-09-19T14:56:08;1.60;;;0.80;;
55417;SDS011;41287;47.554;7.844;2023-09-19T14:58:34;1.25;;;0.73;;
55417;SDS011;41287;47.554;7.844;2023-09-19T15:01:07;2.42;;;1.00;;
55417;SDS011;41287;47.554;7.844;2023-09-19T15:03:35;2.53;;;0.80;;
55417;SDS011;41287;47.554;7.844;2023-09-19T15:06:04;1.52;;;0.77;;
55417;SDS011;41287;47.554;7.844;2023-09-19T15:08:31;1.95;;;0.90;;
55417;SDS011;41287;47.554;7.844;2023-09-19T15:10:59;2.05;;;1.10;;
55417;SDS011;41287;47.554;7.844;2023-09-19T15:13:28;2.00;;;0.70;;
55417;SDS011;41287;47.554;7.844;2023-09-19T15:16:04;1.63;;;0.80;;
55417;SDS011;41287;47.554;7.844;2023-09-19T15:18:36;1.75;;;1.00;;
55417;SDS011;41287;47.554;7.844;2023-09-19T15:21:04;2.47;;;1.00;;
55417;SDS011;41287;47.554;7.844;2023-09-19T15:23:30;0.93;;;0.70;;
55417;SDS011;41287;47.554;7.844;2023-09-19T15:25:58;2.00;;;0.90;;
55417;SDS011;41287;47.554;7.844;2023-09-19T15:28:23;1.45;;;0.82;;
55417;SDS011;41287;47.554;7.844;2023-09-19T15:30:49;1.52;;;0.80;;
55417;SDS011;41287;47.554;7.844;2023-09-19T15:33:15;1.58;;;0.80;;
55417;SDS011;41287;47.554;7.844;2023-09-19T15:35:40;2.20;;;0.90;;
55417;SDS011;41287;47.554;7.844;2023-09-19T15:38:07;1.95;;;0.70;;
55417;SDS011;41287;47.554;7.844;2023-09-19T15:40:32;1.10;;;0.80;;
55417;SDS011;41287;47.554;7.844;2023-09-19T15:42:58;1.92;;;1.08;;
55417;SDS011;41287;47.554;7.844;2023-09-19T15:45:23;1.10;;;0.70;;
55417;SDS011;41287;47.554;7.844;2023-09-19T15:47:50;1.15;;;0.70;;
55417;SDS011;41287;47.554;7.844;2023-09-19T15:50:15;2.47;;;0.73;;
55417;SDS011;41287;47.554;7.844;2023-09-19T15:52:42;2.08;;;0.90;;
55417;SDS011;41287;47.554;7.844;2023-09-19T15:55:07;1.10;;;0.80;;
55417;SDS011;41287;47.554;7.844;2023-09-19T15:57:34;2.42;;;0.95;;
55417;SDS011;41287;47.554;7.844;2023-09-19T16:00:01;0.75;;;0.63;;
55417;SDS011;41287;47.554;7.844;2023-09-19T16:02:29;0.82;;;0.60;;
55417;SDS011;41287;47.554;7.844;2023-09-19T16:04:55;1.10;;;0.80;;